createdAt,value
2022-11-24T00:00:49.430Z,5.46
2022-11-24T00:03:16.004Z,5.52
2022-11-24T00:05:42.585Z,5.52
2022-11-24T00:08:09.353Z,5.48
2022-11-24T00:10:35.943Z,5.55
2022-11-24T00:13:02.410Z,5.63
2022-11-24T00:15:28.891Z,5.65
2022-11-24T00:17:55.372Z,5.56
2022-11-24T00:20:21.845Z,5.53
2022-11-24T00:22:48.311Z,5.54
2022-11-24T00:25:14.867Z,5.57
2022-11-24T00:27:41.318Z,5.56
2022-11-24T00:30:09.841Z,5.57
2022-11-24T00:32:36.321Z,5.56
2022-11-24T00:35:02.831Z,5.58
2022-11-24T00:37:29.356Z,5.57
2022-11-24T00:39:55.874Z,5.55
2022-11-24T00:42:22.351Z,5.57
2022-11-24T00:44:48.855Z,5.53
2022-11-24T00:47:15.392Z,5.50
2022-11-24T00:49:41.930Z,5.57
2022-11-24T00:52:08.416Z,5.66
2022-11-24T00:54:35.168Z,5.63
2022-11-24T00:57:01.912Z,5.66
2022-11-24T00:59:28.401Z,5.65
2022-11-24T01:01:55.167Z,5.62
2022-11-24T01:04:21.926Z,5.56
2022-11-24T01:06:48.416Z,5.58
2022-11-24T01:09:14.933Z,5.60
2022-11-24T01:11:59.710Z,5.71
2022-11-24T01:14:26.229Z,5.60
2022-11-24T01:16:52.731Z,5.57
2022-11-24T01:19:19.372Z,5.70
2022-11-24T01:21:45.922Z,5.73
2022-11-24T01:24:12.549Z,5.70
2022-11-24T01:26:39.108Z,5.69
2022-11-24T01:29:05.626Z,5.65
2022-11-24T01:31:32.822Z,5.64
2022-11-24T01:33:59.414Z,5.61
2022-11-24T01:36:25.955Z,5.59
2022-11-24T01:38:52.448Z,5.77
2022-11-24T01:41:20.901Z,5.68
2022-11-24T01:43:47.801Z,5.62
2022-11-24T01:46:19.720Z,5.73
2022-11-24T01:48:49.055Z,5.74
2022-11-24T01:51:24.339Z,5.84
2022-11-24T01:53:55.047Z,5.78
2022-11-24T01:56:21.533Z,5.84
2022-11-24T01:58:48.007Z,5.90
2022-11-24T02:01:14.617Z,5.90
2022-11-24T02:03:42.105Z,5.99
2022-11-24T02:06:13.148Z,5.99
2022-11-24T02:08:46.685Z,6.00
2022-11-24T02:11:13.174Z,6.00
2022-11-24T02:13:39.994Z,6.07
2022-11-24T02:16:07.079Z,6.07
2022-11-24T02:18:33.584Z,6.11
2022-11-24T02:21:00.134Z,6.10
2022-11-24T02:23:48.601Z,6.07
2022-11-24T02:26:43.276Z,6.09
2022-11-24T02:29:10.562Z,6.09
2022-11-24T02:31:37.577Z,6.12
2022-11-24T02:34:04.134Z,6.06
2022-11-24T02:36:30.754Z,6.10
2022-11-24T02:38:57.370Z,6.05
2022-11-24T02:41:24.452Z,6.04
2022-11-24T02:43:59.349Z,6.01
2022-11-24T02:46:25.875Z,6.07
2022-11-24T02:48:52.428Z,6.00
2022-11-24T02:51:19.199Z,6.02
2022-11-24T02:53:45.998Z,6.04
2022-11-24T02:56:12.775Z,5.96
2022-11-24T02:58:39.290Z,5.86
2022-11-24T03:01:05.844Z,5.85
2022-11-24T03:03:32.430Z,5.82
2022-11-24T03:05:58.901Z,5.74
2022-11-24T03:08:25.656Z,5.63
2022-11-24T03:10:52.194Z,5.72
2022-11-24T03:13:18.660Z,5.71
2022-11-24T03:15:45.189Z,5.83
2022-11-24T03:18:11.718Z,5.87
2022-11-24T03:20:38.322Z,5.93
2022-11-24T03:23:04.777Z,5.98
2022-11-24T03:25:31.265Z,5.98
2022-11-24T03:27:58.252Z,5.99
2022-11-24T03:30:24.818Z,5.90
2022-11-24T03:32:52.846Z,5.90
2022-11-24T03:35:20.537Z,5.77
2022-11-24T03:37:47.084Z,5.76
2022-11-24T03:40:18.239Z,5.79
2022-11-24T03:42:45.426Z,5.73
2022-11-24T03:45:30.318Z,5.71
2022-11-24T03:47:59.709Z,5.54
2022-11-24T03:50:26.208Z,5.54
2022-11-24T03:52:52.688Z,5.50
2022-11-24T03:55:19.186Z,5.30
2022-11-24T03:57:46.281Z,5.01
2022-11-24T04:00:13.627Z,4.97
2022-11-24T04:02:40.139Z,5.08
2022-11-24T04:05:07.866Z,4.96
2022-11-24T04:07:34.397Z,4.95
2022-11-24T04:10:00.974Z,4.91
2022-11-24T04:12:45.580Z,4.86
2022-11-24T04:15:14.081Z,4.67
2022-11-24T04:17:40.727Z,4.57
2022-11-24T04:20:07.933Z,4.61
2022-11-24T04:22:35.122Z,4.70
2022-11-24T04:25:01.942Z,4.61
2022-11-24T04:27:28.679Z,4.52
2022-11-24T04:29:55.179Z,4.59
2022-11-24T04:32:21.648Z,4.66
2022-11-24T04:34:48.126Z,4.69
2022-11-24T04:37:14.613Z,4.56
2022-11-24T04:39:41.105Z,4.54
2022-11-24T04:42:07.566Z,4.65
2022-11-24T04:44:34.358Z,4.66
2022-11-24T04:47:01.336Z,4.61
2022-11-24T04:49:27.887Z,4.53
2022-11-24T04:51:54.364Z,4.69
2022-11-24T04:54:20.833Z,4.65
2022-11-24T04:56:50.093Z,4.66
2022-11-24T04:59:16.544Z,4.78
2022-11-24T05:01:43.612Z,4.89
2022-11-24T05:04:11.542Z,4.87
2022-11-24T05:06:38.503Z,4.96
2022-11-24T05:09:05.190Z,5.01
2022-11-24T05:11:31.687Z,5.04
2022-11-24T05:13:58.146Z,5.10
2022-11-24T05:16:24.708Z,5.09
2022-11-24T05:18:51.251Z,4.98
2022-11-24T05:21:17.725Z,4.98
2022-11-24T05:23:44.700Z,4.86
2022-11-24T05:26:11.213Z,5.06
2022-11-24T05:28:37.679Z,5.11
2022-11-24T05:31:04.583Z,5.19
2022-11-24T05:33:33.193Z,5.15
2022-11-24T05:36:04.018Z,5.08
2022-11-24T05:38:30.851Z,5.07
2022-11-24T05:41:01.584Z,5.00
2022-11-24T05:43:28.086Z,5.18
2022-11-24T05:45:54.549Z,5.03
2022-11-24T05:48:21.277Z,4.90
2022-11-24T05:50:53.807Z,5.01
2022-11-24T05:53:20.294Z,5.08
2022-11-24T05:55:46.808Z,5.12
2022-11-24T05:58:13.277Z,4.83
2022-11-24T06:00:39.996Z,4.97
2022-11-24T06:03:06.680Z,4.94
2022-11-24T06:05:33.296Z,4.78
2022-11-24T06:08:00.602Z,4.92
2022-11-24T06:10:27.301Z,5.02
2022-11-24T06:12:53.792Z,5.14
2022-11-24T06:15:20.280Z,5.13
2022-11-24T06:17:55.975Z,4.99
2022-11-24T06:20:26.067Z,4.99
2022-11-24T06:22:58.640Z,4.94
2022-11-24T06:25:25.139Z,4.95
2022-11-24T06:27:51.642Z,4.69
2022-11-24T06:30:18.211Z,4.85
2022-11-24T06:32:49.388Z,4.76
2022-11-24T06:35:16.389Z,4.65
2022-11-24T06:37:42.895Z,4.82
2022-11-24T06:40:09.893Z,4.88
2022-11-24T06:42:36.686Z,4.97
2022-11-24T06:45:08.747Z,4.92
2022-11-24T06:47:35.981Z,4.82
2022-11-24T06:50:02.701Z,4.93
2022-11-24T06:52:29.189Z,4.93
2022-11-24T06:54:55.918Z,4.88
2022-11-24T06:57:22.464Z,4.97
2022-11-24T06:59:49.058Z,5.03
2022-11-24T07:02:15.557Z,5.12
2022-11-24T07:04:42.085Z,5.16
2022-11-24T07:07:08.698Z,5.19
2022-11-24T07:09:35.223Z,5.37
2022-11-24T07:12:02.303Z,5.45
2022-11-24T07:14:28.786Z,5.44
2022-11-24T07:16:55.403Z,5.52
2022-11-24T07:19:25.061Z,5.58
2022-11-24T07:21:51.783Z,5.53
2022-11-24T07:24:18.826Z,5.63
2022-11-24T07:26:45.417Z,5.66
2022-11-24T07:29:11.922Z,5.66
2022-11-24T07:31:38.539Z,5.70
2022-11-24T07:34:05.092Z,5.69
2022-11-24T07:36:31.590Z,5.69
2022-11-24T07:38:58.163Z,5.78
2022-11-24T07:41:24.651Z,5.85
2022-11-24T07:43:51.693Z,5.90
2022-11-24T07:46:19.010Z,5.99
2022-11-24T07:48:46.147Z,5.92
2022-11-24T07:51:13.098Z,5.88
2022-11-24T07:53:39.683Z,5.81
2022-11-24T07:56:06.772Z,5.86
2022-11-24T07:58:35.311Z,5.93
2022-11-24T08:01:15.900Z,5.89
2022-11-24T08:03:42.913Z,5.87
2022-11-24T08:06:28.671Z,5.86
2022-11-24T08:08:56.549Z,5.99
2022-11-24T08:11:23.070Z,5.92
2022-11-24T08:13:49.571Z,5.99
2022-11-24T08:16:17.431Z,6.01
2022-11-24T08:18:44.694Z,5.99
2022-11-24T08:21:12.791Z,6.05
2022-11-24T08:23:39.235Z,6.10
2022-11-24T08:26:08.667Z,6.04
2022-11-24T08:28:35.419Z,6.04
2022-11-24T08:31:06.229Z,6.04
2022-11-24T08:33:32.697Z,6.15
2022-11-24T08:36:06.425Z,6.17
2022-11-24T08:38:32.977Z,6.11
2022-11-24T08:41:01.284Z,6.16
2022-11-24T08:43:27.836Z,6.37
2022-11-24T08:45:54.441Z,6.33
2022-11-24T08:48:21.009Z,6.37
2022-11-24T08:50:47.545Z,6.41
2022-11-24T08:53:14.034Z,6.43
2022-11-24T08:55:40.481Z,6.41
2022-11-24T08:58:07.002Z,6.43
2022-11-24T09:00:33.450Z,6.36
2022-11-24T09:02:59.995Z,6.38
2022-11-24T09:05:51.157Z,6.46
2022-11-24T09:08:12.939Z,6.47
2022-11-24T09:10:39.416Z,6.48
2022-11-24T09:13:05.879Z,6.55
2022-11-24T09:15:32.340Z,6.64
2022-11-24T09:17:58.830Z,6.68
2022-11-24T09:20:25.431Z,6.67
2022-11-24T09:22:51.906Z,6.74
2022-11-24T09:25:18.435Z,6.79
2022-11-24T09:27:45.101Z,6.76
2022-11-24T09:30:12.318Z,6.81
2022-11-24T09:32:38.815Z,6.84
2022-11-24T09:35:05.619Z,6.80
2022-11-24T09:37:33.085Z,6.81
2022-11-24T09:39:59.560Z,6.76
2022-11-24T09:42:48.079Z,6.94
2022-11-24T09:46:03.376Z,6.94
2022-11-24T09:48:25.384Z,6.99
2022-11-24T09:50:51.861Z,7.10
2022-11-24T09:53:44.615Z,7.19
2022-11-24T09:56:20.740Z,7.14
2022-11-24T09:58:51.941Z,7.19
2022-11-24T10:01:37.840Z,7.21
2022-11-24T10:04:06.823Z,7.31
2022-11-24T10:06:44.145Z,7.41
2022-11-24T10:09:22.914Z,7.52
2022-11-24T10:12:13.744Z,7.53
2022-11-24T10:14:58.916Z,7.60
2022-11-24T10:17:34.488Z,7.63
2022-11-24T10:20:13.070Z,7.69
2022-11-24T10:22:55.397Z,7.64
2022-11-24T10:25:26.450Z,7.60
2022-11-24T10:28:04.811Z,7.59
2022-11-24T10:30:31.320Z,7.61
2022-11-24T10:33:01.857Z,7.75
2022-11-24T10:35:40.802Z,7.71
2022-11-24T10:38:39.349Z,7.86
2022-11-24T10:41:07.544Z,7.92
2022-11-24T10:43:34.032Z,8.04
2022-11-24T10:46:12.363Z,7.98
2022-11-24T10:48:45.718Z,8.06
2022-11-24T10:51:35.386Z,8.09
2022-11-24T10:54:06.116Z,8.04
2022-11-24T10:56:40.320Z,7.98
2022-11-24T10:59:24.884Z,7.93
2022-11-24T11:01:52.083Z,7.88
2022-11-24T11:04:24.931Z,8.01
2022-11-24T11:06:51.451Z,7.95
2022-11-24T11:09:20.005Z,7.98
2022-11-24T11:11:49.341Z,8.11
2022-11-24T11:14:29.790Z,7.90
2022-11-24T11:16:57.574Z,7.94
2022-11-24T11:19:50.632Z,7.91
2022-11-24T11:22:25.756Z,7.91
2022-11-24T11:25:20.385Z,8.02
2022-11-24T11:27:46.885Z,7.99
2022-11-24T11:36:11.152Z,7.89
2022-11-24T11:38:38.359Z,7.79
2022-11-24T11:41:05.210Z,7.80
2022-11-24T11:43:35.682Z,7.89
2022-11-24T11:46:10.562Z,7.80
2022-11-24T11:48:43.099Z,7.82
2022-11-24T11:51:25.636Z,7.76
2022-11-24T11:54:32.345Z,7.80
2022-11-24T11:57:15.250Z,7.95
2022-11-24T12:00:00.706Z,7.85
2022-11-24T12:02:42.139Z,7.79
2022-11-24T12:05:17.530Z,7.84
2022-11-24T12:08:08.125Z,7.89
2022-11-24T12:10:50.734Z,7.76
2022-11-24T12:13:32.115Z,7.83
2022-11-24T12:16:03.893Z,7.90
2022-11-24T12:19:02.277Z,7.87
2022-11-24T12:21:37.792Z,7.92
2022-11-24T12:24:16.325Z,7.88
2022-11-24T12:27:04.146Z,7.84
2022-11-24T12:29:42.703Z,7.68
2022-11-24T12:32:34.196Z,7.72
2022-11-24T12:35:06.371Z,7.82
2022-11-24T12:37:32.721Z,7.81
2022-11-24T12:40:08.268Z,7.79
2022-11-24T12:42:46.224Z,7.72
2022-11-24T12:45:16.926Z,7.65
2022-11-24T12:48:00.417Z,7.58
2022-11-24T12:50:28.037Z,7.63
2022-11-24T12:53:17.533Z,7.62
2022-11-24T12:55:44.461Z,7.47
2022-11-24T12:58:32.923Z,7.50
2022-11-24T13:01:16.220Z,7.47
2022-11-24T13:04:03.734Z,7.54
2022-11-24T13:06:49.274Z,7.44
2022-11-24T13:09:16.251Z,7.55
2022-11-24T13:11:44.243Z,7.65
2022-11-24T13:14:23.276Z,7.52
2022-11-24T13:17:21.903Z,7.68
2022-11-24T13:19:41.524Z,7.55
2022-11-24T13:22:07.904Z,7.47
2022-11-24T13:24:37.024Z,7.49
2022-11-24T13:27:16.172Z,7.49
2022-11-24T13:29:49.374Z,7.44
2022-11-24T13:32:17.721Z,7.44
2022-11-24T13:34:45.500Z,7.52
2022-11-24T13:37:31.699Z,7.63
2022-11-24T13:40:03.021Z,7.57
2022-11-24T13:42:42.743Z,7.60
2022-11-24T13:45:39.763Z,7.49
2022-11-24T13:48:22.598Z,7.42
2022-11-24T13:50:56.094Z,7.47
2022-11-24T13:53:40.776Z,7.47
2022-11-24T13:56:13.129Z,7.42
2022-11-24T13:58:42.506Z,7.46
2022-11-24T14:01:08.895Z,7.44
2022-11-24T14:03:36.826Z,7.55
2022-11-24T14:06:03.649Z,7.51
2022-11-24T14:08:34.125Z,7.54
2022-11-24T14:11:01.279Z,7.49
2022-11-24T14:13:34.035Z,7.58
2022-11-24T14:16:04.894Z,7.46
2022-11-24T14:18:32.397Z,7.44
2022-11-24T14:21:00.090Z,7.58
2022-11-24T14:23:26.605Z,7.51
2022-11-24T14:25:53.173Z,7.52
2022-11-24T14:28:27.121Z,7.43
2022-11-24T14:31:13.493Z,7.44
2022-11-24T14:33:39.982Z,7.45
2022-11-24T14:36:16.657Z,7.44
2022-11-24T14:38:43.317Z,7.49
2022-11-24T14:41:26.001Z,7.64
2022-11-24T14:44:05.428Z,7.46
2022-11-24T14:46:32.012Z,7.43
2022-11-24T14:48:58.510Z,7.43
2022-11-24T14:51:32.278Z,7.35
2022-11-24T14:54:03.339Z,7.34
2022-11-24T14:56:36.651Z,7.29
2022-11-24T14:59:03.522Z,7.29
2022-11-24T15:01:34.000Z,7.35
2022-11-24T15:04:32.407Z,7.24
2022-11-24T15:07:26.149Z,7.19
2022-11-24T15:09:57.774Z,7.19
2022-11-24T15:12:24.417Z,7.29
2022-11-24T15:14:53.045Z,7.20
2022-11-24T15:17:20.726Z,7.23
2022-11-24T15:19:49.240Z,7.27
2022-11-24T15:22:41.711Z,7.29
2022-11-24T15:25:33.502Z,7.17
2022-11-24T15:28:00.696Z,7.16
2022-11-24T15:30:27.163Z,7.19
2022-11-24T15:32:55.036Z,7.16
2022-11-24T15:35:22.678Z,6.91
2022-11-24T15:37:49.982Z,6.98
2022-11-24T15:40:16.760Z,6.81
2022-11-24T15:43:06.250Z,6.66
2022-11-24T15:45:33.776Z,6.58
2022-11-24T15:48:00.261Z,6.72
2022-11-24T15:50:26.726Z,6.52
2022-11-24T15:52:53.247Z,6.47
2022-11-24T15:55:20.872Z,6.42
2022-11-24T15:57:47.481Z,6.48
2022-11-24T16:00:22.128Z,6.33
2022-11-24T16:02:48.679Z,6.25
2022-11-24T16:05:15.493Z,6.27
2022-11-24T16:07:42.104Z,6.35
2022-11-24T16:10:22.564Z,6.29
2022-11-24T16:12:49.394Z,6.29
2022-11-24T16:15:15.873Z,6.49
2022-11-24T16:17:42.688Z,6.45
2022-11-24T16:20:09.627Z,6.40
2022-11-24T16:22:36.123Z,6.37
2022-11-24T16:25:04.168Z,6.36
2022-11-24T16:27:31.263Z,6.36
2022-11-24T16:29:57.808Z,6.34
2022-11-24T16:32:24.382Z,6.35
2022-11-24T16:34:50.874Z,6.38
2022-11-24T16:37:17.381Z,6.39
2022-11-24T16:39:49.811Z,6.37
2022-11-24T16:42:16.752Z,6.39
2022-11-24T16:44:43.223Z,6.37
2022-11-24T16:47:11.930Z,6.42
2022-11-24T16:49:39.033Z,6.60
2022-11-24T16:52:05.505Z,6.60
2022-11-24T16:54:32.104Z,6.58
2022-11-24T16:56:58.837Z,6.42
2022-11-24T16:59:25.313Z,6.28
2022-11-24T17:01:51.968Z,6.39
2022-11-24T17:04:18.617Z,6.10
2022-11-24T17:06:45.109Z,5.59
2022-11-24T17:09:12.289Z,5.53
2022-11-24T17:11:38.884Z,5.42
2022-11-24T17:14:05.856Z,5.40
2022-11-24T17:16:32.490Z,5.33
2022-11-24T17:18:59.741Z,5.26
2022-11-24T17:21:26.670Z,5.16
2022-11-24T17:23:54.639Z,4.81
2022-11-24T17:26:21.147Z,4.74
2022-11-24T17:28:47.934Z,4.88
2022-11-24T17:31:21.236Z,4.84
2022-11-24T17:33:48.931Z,4.94
2022-11-24T17:36:15.414Z,4.93
2022-11-24T17:38:41.933Z,5.05
2022-11-24T17:41:08.524Z,4.90
2022-11-24T17:43:35.081Z,4.87
2022-11-24T17:46:02.509Z,5.04
2022-11-24T17:48:29.259Z,4.98
2022-11-24T17:51:09.403Z,4.87
2022-11-24T17:53:36.480Z,4.66
2022-11-24T17:56:03.497Z,4.72
2022-11-24T17:58:30.699Z,4.56
2022-11-24T18:00:57.545Z,4.68
2022-11-24T18:03:28.427Z,4.64
2022-11-24T18:05:55.475Z,4.68
2022-11-24T18:08:22.029Z,5.03
2022-11-24T18:10:48.493Z,4.81
2022-11-24T18:13:40.719Z,4.75
2022-11-24T18:16:02.203Z,4.84
2022-11-24T18:18:28.752Z,4.82
2022-11-24T18:20:58.907Z,4.79
2022-11-24T18:23:25.823Z,4.55
2022-11-24T18:25:59.244Z,4.52
2022-11-24T18:28:26.207Z,4.50
2022-11-24T18:30:53.022Z,4.48
2022-11-24T18:33:19.658Z,4.48
2022-11-24T18:36:01.989Z,4.44
2022-11-24T18:38:28.546Z,4.44
2022-11-24T18:40:56.134Z,4.41
2022-11-24T18:43:24.827Z,4.62
2022-11-24T18:45:53.127Z,4.42
2022-11-24T18:48:20.291Z,4.36
2022-11-24T18:50:51.678Z,4.32
2022-11-24T18:53:18.963Z,4.26
2022-11-24T18:56:00.678Z,4.19
2022-11-24T18:58:29.824Z,4.32
2022-11-24T19:01:15.084Z,4.37
2022-11-24T19:03:52.016Z,4.48
2022-11-24T19:06:20.269Z,4.43
2022-11-24T19:08:47.055Z,4.36
2022-11-24T19:11:24.053Z,4.38
2022-11-24T19:13:50.682Z,4.52
2022-11-24T19:16:17.989Z,4.51
2022-11-24T19:18:48.911Z,4.63
2022-11-24T19:21:31.386Z,4.68
2022-11-24T19:24:04.255Z,4.64
2022-11-24T19:26:31.617Z,4.68
2022-11-24T19:28:58.088Z,4.48
2022-11-24T19:31:24.570Z,4.58
2022-11-24T19:33:52.765Z,4.63
2022-11-24T19:36:19.845Z,4.57
2022-11-24T19:38:53.721Z,4.63
2022-11-24T19:41:21.317Z,4.51
2022-11-24T19:43:48.188Z,4.46
2022-11-24T19:46:17.216Z,4.37
2022-11-24T19:48:45.482Z,4.46
2022-11-24T19:51:14.533Z,4.40
2022-11-24T19:53:41.029Z,4.26
2022-11-24T19:56:08.251Z,4.02
2022-11-24T19:58:34.900Z,4.03
2022-11-24T20:01:30.227Z,4.13
2022-11-24T20:03:58.931Z,4.47
2022-11-24T20:06:26.620Z,4.26
2022-11-24T20:08:53.139Z,4.23
2022-11-24T20:11:20.438Z,4.15
2022-11-24T20:13:47.405Z,4.21
2022-11-24T20:16:15.495Z,4.11
2022-11-24T20:18:43.960Z,4.05
2022-11-24T20:21:12.662Z,3.81
2022-11-24T20:23:39.494Z,3.96
2022-11-24T20:26:07.257Z,3.92
2022-11-24T20:28:33.744Z,3.64
2022-11-24T20:31:04.241Z,3.67
2022-11-24T20:33:30.824Z,3.60
2022-11-24T20:36:08.129Z,3.85
2022-11-24T20:38:34.925Z,3.86
2022-11-24T20:41:09.076Z,3.53
2022-11-24T20:43:36.458Z,3.61
2022-11-24T20:46:08.354Z,3.59
2022-11-24T20:48:34.956Z,3.57
2022-11-24T20:51:11.924Z,3.75
2022-11-24T20:53:38.495Z,3.67
2022-11-24T20:56:10.465Z,3.99
2022-11-24T20:58:37.129Z,3.79
2022-11-24T21:01:14.471Z,4.00
2022-11-24T21:03:43.339Z,3.87
2022-11-24T21:06:11.136Z,3.79
2022-11-24T21:08:37.906Z,3.66
2022-11-24T21:11:04.962Z,3.79
2022-11-24T21:13:35.123Z,3.68
2022-11-24T21:16:30.122Z,3.62
2022-11-24T21:18:59.256Z,3.57
2022-11-24T21:21:27.240Z,3.36
2022-11-24T21:23:53.705Z,3.26
2022-11-24T21:26:20.166Z,3.13
2022-11-24T21:28:47.072Z,3.25
2022-11-24T21:31:18.207Z,3.30
2022-11-24T21:33:46.040Z,3.46
2022-11-24T21:36:14.581Z,3.42
2022-11-24T21:38:41.858Z,3.22
2022-11-24T21:41:08.866Z,3.18
2022-11-24T21:43:35.711Z,3.18
2022-11-24T21:46:02.683Z,3.18
2022-11-24T21:48:29.616Z,3.36
2022-11-24T21:50:57.777Z,3.30
2022-11-24T21:53:24.241Z,3.31
2022-11-24T21:55:55.369Z,3.23
2022-11-24T21:58:22.502Z,3.35
2022-11-24T22:00:49.541Z,3.32
2022-11-24T22:03:16.194Z,3.37
2022-11-24T22:05:42.960Z,3.42
2022-11-24T22:08:09.415Z,3.54
2022-11-24T22:10:35.893Z,3.60
2022-11-24T22:13:02.354Z,3.69
2022-11-24T22:15:28.967Z,3.66
2022-11-24T22:17:55.433Z,3.66
2022-11-24T22:20:21.908Z,3.74
2022-11-24T22:22:48.383Z,3.91
2022-11-24T22:25:14.898Z,3.82
2022-11-24T22:27:41.354Z,3.74
2022-11-24T22:30:08.380Z,3.78
2022-11-24T22:32:34.848Z,3.77
2022-11-24T22:35:01.315Z,3.72
2022-11-24T22:37:27.878Z,3.63
2022-11-24T22:39:54.342Z,3.61
2022-11-24T22:42:20.807Z,3.75
2022-11-24T22:44:47.254Z,3.63
2022-11-24T22:47:13.770Z,3.55
2022-11-24T22:49:40.429Z,3.51
2022-11-24T22:52:06.885Z,3.46
2022-11-24T22:54:33.752Z,3.44
2022-11-24T22:57:00.386Z,3.50
2022-11-24T22:59:26.890Z,3.59
2022-11-24T23:01:53.366Z,3.49
2022-11-24T23:04:19.876Z,3.61
2022-11-24T23:06:46.428Z,3.65
2022-11-24T23:09:12.965Z,3.64
2022-11-24T23:11:39.889Z,3.83
2022-11-24T23:14:16.163Z,3.93
2022-11-24T23:16:42.758Z,4.04
2022-11-24T23:19:09.428Z,4.01
2022-11-24T23:21:38.203Z,3.98
2022-11-24T23:24:05.149Z,3.96
2022-11-24T23:26:33.720Z,3.98
2022-11-24T23:29:00.213Z,3.95
2022-11-24T23:31:31.279Z,3.88
2022-11-24T23:33:58.512Z,3.86
2022-11-24T23:36:25.489Z,3.80
2022-11-24T23:38:52.004Z,3.66
2022-11-24T23:41:22.873Z,3.69
2022-11-24T23:43:49.338Z,3.73
2022-11-24T23:46:17.682Z,3.72
2022-11-24T23:48:44.294Z,3.84
2022-11-24T23:51:15.131Z,3.85
2022-11-24T23:53:41.802Z,3.87
2022-11-24T23:56:08.485Z,4.07
2022-11-24T23:58:34.982Z,4.29
